Terminal Aerodrome Forecast
Issued by NWS Pocatello, ID

Home | Current Version | Previous Version | Text Only | Print | Product List | Glossary On
Versions: 1 2 3 4 5 6 7 8 9 10 11 12 13 14 15 16 17 18 19 20 21 22 23 24 25 26 27 28 29
358
FTUS45 KPIH 090523
TAFIDA
TAF
KIDA 090523Z 0906/1006 VRB03KT 1/4SM FZFG SCT001 OVC002
     FM091900 36005KT 5SM BR BKN003 OVC010
     FM092100 01006KT P6SM BKN012 BKN150
     FM100000 36006KT P6SM OVC006
     FM100200 VRB03KT 1/2SM FZFG SCT001 OVC002=

USA.gov is the U.S. government's official web portal to all federal, state and local government web resources and services.